Time;durP1;ratioP1;P1;durP2;ratioP2;P2;SDS_P1;SDS_P2;PMS_P1;PMS_P2;Temp;Humidity;BMP_temperature;BMP_pressure;BME280_temperature;BME280_humidity;BME280_pressure;Samples;Min_cycle;Max_cycle;Signal;HPM_P1;HPM_P2
2022/07/09 00:00:36;;;;;;;4.47;2.08;;;14.20;95.20;;;13.93;77.25;98353.78;4927115;28;20046;-42
2022/07/09 00:03:02;;;;;;;5.28;2.00;;;14.10;95.60;;;13.80;77.65;98331.25;4927001;28;20090;-45
2022/07/09 00:05:27;;;;;;;4.07;1.80;;;14.10;95.80;;;13.83;78.34;98341.75;4923841;28;20117;-42
2022/07/09 00:07:53;;;;;;;5.30;2.22;;;14.00;96.00;;;13.80;78.46;98337.44;4927255;28;20062;-42
2022/07/09 00:10:19;;;;;;;6.18;1.98;;;14.00;96.10;;;13.82;77.66;98346.19;4928196;28;20173;-45
2022/07/09 00:12:45;;;;;;;3.60;1.63;;;14.00;95.90;;;13.80;78.26;98342.72;4928369;28;20370;-46
2022/07/09 00:15:11;;;;;;;4.32;2.15;;;14.00;96.20;;;13.81;78.63;98340.94;4927006;28;21512;-45
2022/07/09 00:17:37;;;;;;;4.50;1.80;;;14.00;96.30;;;13.79;79.84;98335.69;4924576;28;20131;-42
2022/07/09 00:20:04;;;;;;;3.97;2.00;;;14.00;96.80;;;13.77;79.91;98341.97;4926121;28;20043;-43
2022/07/09 00:22:31;;;;;;;4.43;2.35;;;14.00;96.80;;;13.78;80.37;98327.78;4931729;28;20467;-43
2022/07/09 00:24:58;;;;;;;3.75;1.80;;;14.00;96.90;;;13.77;79.80;98331.38;4934630;28;20031;-45
2022/07/09 00:27:24;;;;;;;3.42;1.80;;;14.00;96.90;;;13.78;79.61;98327.78;4935533;28;20296;-44
2022/07/09 00:29:50;;;;;;;5.68;2.17;;;14.00;96.80;;;13.78;80.09;98330.44;4933506;28;20437;-45
2022/07/09 00:32:16;;;;;;;4.20;1.88;;;14.00;97.00;;;13.76;81.27;98333.13;4932521;28;20435;-46
2022/07/09 00:34:42;;;;;;;4.00;1.90;;;14.00;97.40;;;13.69;81.50;98328.97;4929571;28;20035;-42
2022/07/09 00:37:08;;;;;;;5.88;1.95;;;13.90;97.50;;;13.65;82.25;98327.34;4928583;28;20641;-42
2022/07/09 00:39:34;;;;;;;3.35;1.92;;;13.90;97.80;;;13.62;82.57;98324.78;4921507;28;20960;-44
2022/07/09 00:42:08;;;;;;;6.55;2.10;;;13.80;97.90;;;13.57;82.44;98319.66;4928520;28;20142;-45
2022/07/09 00:44:35;;;;;;;3.42;1.65;;;13.80;98.00;;;13.45;82.17;98297.09;4931499;28;20102;-44
2022/07/09 00:47:06;;;;;;;4.65;2.00;;;13.70;97.90;;;13.56;82.27;98318.78;4929972;28;20572;-44
2022/07/09 00:49:42;;;;;;;3.47;1.90;;;13.80;98.00;;;13.58;81.89;98317.88;4930309;28;20031;-41
2022/07/09 00:52:13;;;;;;;3.08;1.65;;;13.80;98.00;;;13.46;82.35;98293.53;4919002;28;20027;-43
2022/07/09 00:54:40;;;;;;;1.48;1.33;;;13.70;98.20;;;13.54;81.75;98314.47;4927311;28;20031;-46
2022/07/09 00:57:08;;;;;;;3.22;1.60;;;13.70;98.00;;;13.55;80.92;98308.25;4934118;28;21244;-45
2022/07/09 00:59:36;;;;;;;3.75;1.67;;;13.70;97.80;;;13.59;80.15;98303.72;4934544;28;20083;-42
2022/07/09 01:02:02;;;;;;;3.30;1.60;;;13.80;97.60;;;13.61;79.65;98293.91;4939131;28;20082;-44
2022/07/09 01:04:28;;;;;;;2.97;1.83;;;13.80;97.40;;;13.60;80.13;98292.19;4935263;28;20117;-45
2022/07/09 01:06:54;;;;;;;4.93;1.90;;;13.80;97.50;;;13.54;80.66;98285.31;4940610;28;20031;-45
2022/07/09 01:09:21;;;;;;;3.25;1.85;;;13.80;97.80;;;13.51;81.02;98290.69;4945424;29;20110;-45
2022/07/09 01:11:47;;;;;;;4.05;2.20;;;13.70;97.90;;;13.46;81.15;98292.66;4939183;28;20082;-46
2022/07/09 01:14:13;;;;;;;3.00;1.83;;;13.70;98.00;;;13.41;81.10;98279.56;4933599;28;20068;-43
2022/07/09 01:16:39;;;;;;;4.22;2.00;;;13.70;98.00;;;13.40;81.65;98285.78;4941760;28;20035;-45
2022/07/09 01:19:05;;;;;;;4.15;1.90;;;13.60;98.20;;;13.35;82.14;98290.38;4941254;28;20382;-46
2022/07/09 01:21:32;;;;;;;2.50;2.10;;;13.60;98.40;;;13.32;82.42;98285.19;4930026;28;20023;-45
2022/07/09 01:23:58;;;;;;;3.50;2.20;;;13.50;98.60;;;13.23;83.85;98283.69;4927646;28;20056;-44
2022/07/09 01:26:25;;;;;;;4.07;2.03;;;13.50;99.00;;;13.18;84.22;98286.47;4929437;28;20130;-44
2022/07/09 01:28:51;;;;;;;3.35;1.70;;;13.40;99.20;;;13.13;84.20;98285.75;4930183;28;20061;-44
2022/07/09 01:31:16;;;;;;;4.43;1.92;;;13.40;99.20;;;13.09;84.42;98278.84;4930837;28;20043;-43
2022/07/09 01:33:42;;;;;;;3.20;1.73;;;13.40;99.40;;;13.06;85.35;98276.28;4932325;28;20070;-46
2022/07/09 01:36:08;;;;;;;4.57;2.00;;;13.30;99.70;;;12.95;85.65;98268.69;4925274;28;21431;-43
2022/07/09 01:38:34;;;;;;;5.55;2.60;;;13.20;99.90;;;12.96;86.06;98274.88;4912006;29;20118;-44
2022/07/09 01:41:01;;;;;;;4.43;2.10;;;13.20;99.90;;;12.91;86.48;98275.00;4924623;28;20039;-45
2022/07/09 01:43:26;;;;;;;3.63;2.00;;;13.20;99.90;;;12.88;87.41;98271.59;4928592;28;20084;-41
2022/07/09 01:45:52;;;;;;;3.13;2.13;;;13.10;99.90;;;12.77;88.33;98264.00;4929383;28;20019;-45
2022/07/09 01:48:18;;;;;;;4.15;2.40;;;13.10;99.90;;;12.75;88.89;98277.28;4928130;28;20032;-45
2022/07/09 01:50:44;;;;;;;3.88;2.17;;;13.00;99.90;;;12.70;88.86;98276.56;4925319;28;20058;-46
2022/07/09 01:53:10;;;;;;;4.80;2.33;;;12.90;99.90;;;12.67;89.51;98273.13;4924701;28;20039;-43
2022/07/09 01:55:36;;;;;;;4.38;2.00;;;12.90;99.90;;;12.60;90.37;98270.69;4911214;29;20031;-44
2022/07/09 01:58:02;;;;;;;3.55;2.05;;;12.80;99.90;;;12.52;91.05;98261.25;4928250;28;20870;-45
2022/07/09 02:00:29;;;;;;;3.97;2.00;;;12.80;99.90;;;12.54;91.45;98270.00;4926047;28;20028;-47
2022/07/09 02:02:55;;;;;;;4.28;2.15;;;12.80;99.90;;;12.47;92.37;98266.72;4926620;28;21205;-45
2022/07/09 02:05:21;;;;;;;3.95;1.88;;;12.70;99.90;;;12.44;92.72;98260.66;4930242;28;20315;-43
2022/07/09 02:07:47;;;;;;;5.28;2.20;;;12.70;99.90;;;12.39;93.07;98263.41;4929386;28;20361;-44
2022/07/09 02:10:13;;;;;;;3.42;2.22;;;12.60;99.90;;;12.36;93.21;98259.09;4929027;28;20399;-42
2022/07/09 02:12:40;;;;;;;5.38;2.20;;;12.60;99.90;;;12.34;93.10;98263.53;4926322;28;20361;-42
2022/07/09 02:15:08;;;;;;;2.90;1.95;;;12.60;99.90;;;12.33;92.71;98256.53;4925856;28;20031;-46
2022/07/09 02:17:34;;;;;;;3.20;1.90;;;12.60;99.90;;;12.32;93.56;98260.09;4926577;28;20039;-44
2022/07/09 02:19:59;;;;;;;4.30;1.98;;;12.60;99.90;;;12.28;94.28;98255.81;4928135;28;20258;-44
2022/07/09 02:22:25;;;;;;;4.60;1.92;;;12.60;99.90;;;12.32;95.19;98257.44;4929792;28;21268;-45
2022/07/09 02:24:51;;;;;;;4.53;2.08;;;12.60;99.90;;;12.33;95.29;98259.19;4920681;28;20150;-44
2022/07/09 02:27:16;;;;;;;4.75;1.90;;;12.60;99.90;;;12.32;94.70;98252.16;4930820;28;20593;-47
2022/07/09 02:29:42;;;;;;;4.15;1.83;;;12.60;99.90;;;12.35;94.38;98246.78;4928782;28;20482;-43
2022/07/09 02:32:10;;;;;;;5.60;2.15;;;12.60;99.90;;;12.37;94.05;98250.22;4929124;28;20047;-43
2022/07/09 02:34:37;;;;;;;6.63;1.90;;;12.60;99.90;;;12.39;94.25;98252.84;4920561;28;20157;-42
2022/07/09 02:37:04;;;;;;;3.90;1.90;;;12.70;99.90;;;12.43;93.28;98259.75;4929993;28;20093;-43
2022/07/09 02:39:30;;;;;;;3.95;2.00;;;12.70;99.90;;;12.46;92.52;98257.03;4930546;28;20035;-45
2022/07/09 02:41:55;;;;;;;3.95;1.80;;;12.70;99.90;;;12.47;92.31;98250.84;4930774;28;20035;-46
2022/07/09 02:44:21;;;;;;;3.25;2.10;;;12.70;99.90;;;12.46;93.02;98250.88;4923872;28;20046;-43
2022/07/09 02:46:47;;;;;;;3.47;2.20;;;12.70;99.90;;;12.44;93.95;98244.78;4923427;28;20031;-42
2022/07/09 02:49:13;;;;;;;5.43;2.15;;;12.70;99.90;;;12.44;94.67;98245.63;4926861;28;20210;-44
2022/07/09 02:51:38;;;;;;;4.30;2.10;;;12.70;99.90;;;12.41;95.19;98243.94;4925392;28;20522;-43
2022/07/09 02:54:04;;;;;;;4.13;2.40;;;12.70;99.90;;;12.40;95.16;98258.09;4935197;28;20043;-43
2022/07/09 02:56:30;;;;;;;6.28;2.40;;;12.70;99.90;;;12.37;94.28;98255.53;4925520;28;20027;-45
2022/07/09 02:58:56;;;;;;;3.47;1.95;;;12.60;99.90;;;12.38;93.72;98251.97;4920297;28;20427;-45
2022/07/09 03:01:22;;;;;;;4.28;1.92;;;12.60;99.90;;;12.34;94.11;98250.31;4925751;28;20035;-42
2022/07/09 03:03:47;;;;;;;4.63;1.80;;;12.60;99.90;;;12.33;93.75;98253.91;4926031;28;20047;-43
2022/07/09 03:06:13;;;;;;;3.70;2.20;;;12.60;99.90;;;12.29;93.77;98252.25;4927175;28;20027;-42
2022/07/09 03:08:39;;;;;;;3.45;1.95;;;12.50;99.90;;;12.29;93.72;98252.25;4926377;28;20031;-43
2022/07/09 03:11:09;;;;;;;4.35;2.00;;;12.50;99.90;;;12.29;93.21;98248.72;4925141;28;20027;-43
2022/07/09 03:13:35;;;;;;;4.80;1.83;;;12.50;99.90;;;12.28;93.44;98255.81;4927885;28;20027;-43
2022/07/09 03:16:06;;;;;;;3.92;1.92;;;12.50;99.90;;;12.28;93.47;98247.00;4923975;28;20126;-42
2022/07/09 03:18:32;;;;;;;3.47;1.80;;;12.50;99.90;;;12.27;94.66;98254.06;4924702;28;20074;-44
2022/07/09 03:20:57;;;;;;;4.53;2.05;;;12.50;99.90;;;12.24;94.66;98262.09;4926492;28;20464;-43
2022/07/09 03:23:23;;;;;;;2.75;1.63;;;12.50;99.90;;;12.24;94.33;98259.47;4928135;28;20035;-46
2022/07/09 03:25:49;;;;;;;4.07;1.98;;;12.50;99.90;;;12.20;94.93;98256.03;4920364;28;20035;-45
2022/07/09 03:28:14;;;;;;;3.33;2.00;;;12.50;99.90;;;12.20;95.31;98260.44;4925397;28;20475;-44
2022/07/09 03:30:40;;;;;;;5.80;2.05;;;12.50;99.90;;;12.16;95.67;98257.03;4923273;28;20083;-41
2022/07/09 03:33:06;;;;;;;2.08;1.50;;;12.40;99.90;;;12.13;96.39;98254.50;4926932;28;20593;-43
2022/07/09 03:35:31;;;;;;;3.33;2.13;;;12.40;99.90;;;12.10;96.79;98261.66;4922658;28;20069;-42
2022/07/09 03:37:57;;;;;;;5.43;2.10;;;12.40;99.90;;;12.07;96.82;98269.66;4931089;28;20035;-42
2022/07/09 03:40:23;;;;;;;2.95;1.95;;;12.30;99.90;;;12.07;96.54;98256.44;4927474;28;20393;-45
2022/07/09 03:42:49;;;;;;;4.38;1.80;;;12.30;99.90;;;12.06;96.32;98267.91;4924064;28;20118;-44
2022/07/09 03:45:14;;;;;;;3.45;1.90;;;12.30;99.90;;;12.04;96.72;98260.03;4950677;23;20601;-39
2022/07/09 03:47:40;;;;;;;3.83;2.10;;;12.30;99.90;;;12.00;97.23;98264.53;4943169;28;20041;-40
2022/07/09 03:50:06;;;;;;;4.20;1.92;;;12.30;99.90;;;12.00;97.46;98266.31;4944903;28;21655;-39
2022/07/09 03:52:32;;;;;;;3.20;2.03;;;12.30;99.90;;;12.01;97.38;98260.13;4948573;28;20554;-39
2022/07/09 03:54:58;;;;;;;4.63;2.13;;;12.30;99.90;;;12.05;96.84;98258.28;4937883;28;20035;-39
2022/07/09 03:57:24;;;;;;;3.25;1.90;;;12.30;99.90;;;12.09;96.66;98254.63;4933064;28;20082;-39
2022/07/09 03:59:50;;;;;;;2.63;1.95;;;12.30;99.90;;;12.12;96.45;98267.75;4930439;28;20216;-39
2022/07/09 04:02:15;;;;;;;2.67;1.90;;;12.40;99.90;;;12.15;97.00;98257.97;4932941;28;20027;-39
2022/07/09 04:04:43;;;;;;;6.97;2.10;;;12.40;99.90;;;12.14;97.42;98258.00;4931382;28;20039;-39
2022/07/09 04:07:09;;;;;;;3.55;2.05;;;12.40;99.90;;;12.21;98.11;98270.97;4937503;28;20033;-39
2022/07/09 04:09:35;;;;;;;4.25;2.28;;;12.50;99.90;;;12.26;98.90;98259.38;4944895;28;20061;-39
2022/07/09 04:12:00;;;;;;;5.55;2.05;;;12.50;99.90;;;12.25;99.09;98260.31;4945000;28;20122;-39
2022/07/09 04:14:26;;;;;;;3.25;1.90;;;12.50;99.90;;;12.29;99.20;98273.44;4938828;28;20292;-39
2022/07/09 04:16:52;;;;;;;4.60;2.35;;;12.50;99.90;;;12.34;99.50;98273.28;4935095;28;20165;-39
2022/07/09 04:19:17;;;;;;;4.63;2.72;;;12.60;99.90;;;12.34;99.82;98262.69;4937055;28;20027;-39
2022/07/09 04:21:43;;;;;;;4.57;2.63;;;12.60;99.90;;;12.37;100.00;98268.75;4935780;28;20128;-39
2022/07/09 04:24:09;;;;;;;6.20;2.35;;;12.60;99.90;;;12.47;100.00;98271.13;4938183;28;20557;-39
2022/07/09 04:26:34;;;;;;;3.97;2.22;;;12.70;99.90;;;12.54;100.00;98278.84;4934685;28;20035;-39
2022/07/09 04:29:00;;;;;;;3.55;2.05;;;12.80;99.90;;;12.59;100.00;98276.03;4937135;28;20559;-39
2022/07/09 04:31:26;;;;;;;6.18;2.17;;;12.80;99.90;;;12.65;100.00;98286.44;4935909;28;20538;-39
2022/07/09 04:33:51;;;;;;;3.28;1.83;;;12.90;99.90;;;12.69;100.00;98280.13;4940693;28;20054;-39
2022/07/09 04:36:17;;;;;;;2.60;2.00;;;12.90;99.90;;;12.72;100.00;98282.69;4937043;28;20054;-42
2022/07/09 04:38:43;;;;;;;3.58;1.90;;;13.00;99.90;;;12.75;100.00;98276.41;4938281;28;20119;-40
2022/07/09 04:41:08;;;;;;;4.88;2.13;;;13.00;99.90;;;12.80;100.00;98280.66;4943844;28;20039;-39
2022/07/09 04:43:34;;;;;;;4.85;2.80;;;13.00;99.90;;;12.86;100.00;98284.88;4941641;28;20035;-39
2022/07/09 04:46:00;;;;;;;5.22;2.50;;;13.10;99.90;;;12.93;100.00;98285.56;4935775;28;20027;-40
2022/07/09 04:48:26;;;;;;;4.05;2.20;;;13.10;99.90;;;13.02;100.00;98279.94;4928804;28;20115;-40
2022/07/09 04:50:52;;;;;;;3.75;2.40;;;13.20;99.90;;;13.09;100.00;98273.53;4936709;28;20037;-40
2022/07/09 04:53:17;;;;;;;4.85;2.30;;;13.30;99.90;;;13.17;100.00;98283.88;4933860;28;20027;-40
2022/07/09 04:55:43;;;;;;;3.78;2.17;;;13.40;99.90;;;13.25;99.74;98276.53;4937666;28;20035;-40
2022/07/09 04:58:09;;;;;;;4.32;2.30;;;13.40;99.90;;;13.33;98.85;98273.66;4937073;28;20031;-40
2022/07/09 05:00:36;;;;;;;3.30;2.00;;;13.50;99.90;;;13.42;98.17;98275.13;4938084;28;20418;-40
2022/07/09 05:03:02;;;;;;;4.93;2.58;;;13.60;99.90;;;13.51;97.11;98277.47;4930466;28;20229;-40
2022/07/09 05:05:28;;;;;;;3.80;2.45;;;13.70;99.90;;;13.60;96.65;98276.28;4935734;28;20054;-39
2022/07/09 05:07:53;;;;;;;3.63;2.20;;;13.80;99.90;;;13.63;96.25;98260.28;4946340;28;20038;-40
2022/07/09 05:10:19;;;;;;;4.55;2.10;;;13.90;99.90;;;13.91;95.62;98276.91;4949707;28;20031;-40
2022/07/09 05:12:46;;;;;;;4.82;2.30;;;14.00;99.90;;;14.12;94.65;98272.63;4941915;28;20041;-40
2022/07/09 05:15:13;;;;;;;2.67;1.80;;;14.20;99.90;;;14.63;92.83;98273.34;4939117;28;20517;-40
2022/07/09 05:17:40;;;;;;;3.03;1.80;;;14.50;99.90;;;15.48;88.94;98269.88;4938348;28;20035;-40
2022/07/09 05:20:09;;;;;;;4.40;2.00;;;14.90;99.90;;;16.54;83.59;98277.56;4939679;28;20066;-40
2022/07/09 05:22:36;;;;;;;2.80;1.80;;;15.60;99.90;;;17.56;77.52;98273.50;4938436;28;20053;-40
2022/07/09 05:25:04;;;;;;;4.32;1.90;;;16.30;99.90;;;18.51;71.92;98268.44;4946017;28;20046;-40
2022/07/09 05:27:30;;;;;;;3.20;1.80;;;17.10;99.90;;;19.50;66.59;98270.84;4944226;28;20166;-40
2022/07/09 05:29:55;;;;;;;8.48;2.50;;;17.90;99.90;;;20.24;56.63;98269.06;4942046;28;20031;-40
2022/07/09 05:32:21;;;;;;;7.82;2.40;;;18.60;98.00;;;20.82;53.44;98267.22;4941325;28;20039;-40
2022/07/09 05:34:47;;;;;;;4.60;1.98;;;19.10;96.10;;;21.26;52.57;98270.63;4942050;28;20499;-40
2022/07/09 05:37:13;;;;;;;3.80;1.83;;;19.50;95.70;;;21.11;53.14;98276.03;4931745;28;20038;-40
2022/07/09 05:39:40;;;;;;;3.65;2.00;;;19.70;95.30;;;20.63;54.56;98269.38;4946906;28;20046;-40
2022/07/09 05:42:05;;;;;;;2.55;1.85;;;19.60;95.00;;;20.19;55.77;98276.56;4941113;28;24824;-40
2022/07/09 05:44:32;;;;;;;3.97;1.70;;;19.40;95.00;;;19.77;57.61;98278.22;4952912;28;20030;-40
2022/07/09 05:46:58;;;;;;;3.40;1.77;;;19.20;95.30;;;19.37;58.17;98264.53;4953718;28;20134;-40
2022/07/09 05:49:23;;;;;;;4.85;2.20;;;18.90;95.20;;;19.14;59.84;98280.09;4946879;28;20028;-40
2022/07/09 05:51:49;;;;;;;4.65;2.20;;;18.80;95.60;;;18.89;60.28;98294.84;4952477;28;20435;-40
2022/07/09 05:54:15;;;;;;;5.05;2.17;;;18.70;95.40;;;18.71;61.38;98287.84;4947824;28;20499;-40
2022/07/09 05:56:41;;;;;;;2.63;1.95;;;18.50;95.70;;;18.57;62.58;98287.75;4948107;28;20031;-40
2022/07/09 05:59:07;;;;;;;2.47;1.80;;;18.40;96.10;;;18.46;62.47;98297.22;4945105;28;20895;-40
2022/07/09 06:01:39;;;;;;;5.28;1.98;;;18.30;96.00;;;18.38;62.61;98294.13;4948228;28;20035;-40
2022/07/09 06:04:07;;;;;;;4.55;2.05;;;18.30;96.00;;;18.24;62.39;98294.00;4945921;28;20055;-40
2022/07/09 06:06:33;;;;;;;2.70;1.85;;;18.30;95.90;;;18.18;62.83;98289.84;4956718;28;20326;-40
2022/07/09 06:08:59;;;;;;;4.75;2.00;;;18.20;95.90;;;18.12;63.15;98277.69;4941501;28;20644;-40
2022/07/09 06:11:24;;;;;;;6.07;1.95;;;18.10;96.00;;;18.16;63.84;98288.19;4949235;28;20046;-40
2022/07/09 06:13:50;;;;;;;6.72;1.80;;;18.10;96.30;;;18.04;64.46;98266.56;4942293;28;20432;-40
2022/07/09 06:16:16;;;;;;;3.58;1.92;;;18.20;96.40;;;18.21;63.95;98288.81;4951783;28;20152;-40
2022/07/09 06:18:41;;;;;;;6.72;2.13;;;18.20;96.10;;;18.30;63.07;98285.63;4950279;28;20487;-40
2022/07/09 06:21:07;;;;;;;4.45;2.08;;;18.30;96.10;;;18.47;61.71;98288.25;4952571;28;20325;-40
2022/07/09 06:23:33;;;;;;;3.78;1.77;;;18.40;95.50;;;18.56;62.40;98284.22;4945409;28;20035;-40
2022/07/09 06:25:58;;;;;;;3.67;1.60;;;18.60;96.00;;;18.83;61.61;98276.50;4947076;28;20379;-40
2022/07/09 06:28:24;;;;;;;3.40;1.70;;;18.80;95.50;;;19.06;61.71;98272.53;4941688;28;20034;-40
2022/07/09 06:30:50;;;;;;;3.45;1.95;;;19.00;95.50;;;19.30;59.46;98281.88;4947004;28;20125;-40
2022/07/09 06:33:16;;;;;;;5.72;2.30;;;19.30;94.70;;;19.42;57.89;98282.03;4945822;28;20133;-40
2022/07/09 06:35:42;;;;;;;2.42;1.73;;;19.40;94.30;;;19.52;58.64;98276.13;4944906;28;20039;-40
2022/07/09 06:38:08;;;;;;;4.32;2.03;;;19.50;94.20;;;19.55;57.98;98271.44;4942913;28;20033;-40
2022/07/09 06:40:34;;;;;;;3.83;1.85;;;19.60;94.20;;;19.57;58.62;98282.06;4943683;28;20067;-41
2022/07/09 06:43:00;;;;;;;4.20;1.80;;;19.60;94.00;;;19.48;58.64;98277.25;4945179;28;20031;-40
2022/07/09 06:45:25;;;;;;;4.40;1.90;;;19.50;93.90;;;19.29;57.77;98278.34;4945478;28;20563;-40
2022/07/09 06:47:52;;;;;;;6.10;2.00;;;19.40;93.70;;;19.18;58.31;98278.94;4949818;28;20537;-40
2022/07/09 06:50:18;;;;;;;3.13;1.77;;;19.20;93.70;;;19.02;58.41;98270.09;4951091;28;20035;-40
2022/07/09 06:52:44;;;;;;;4.60;2.00;;;19.10;94.00;;;19.03;58.89;98274.50;4948596;28;20047;-40
2022/07/09 06:55:10;;;;;;;3.38;1.48;;;19.10;93.90;;;19.13;59.08;98278.38;4938823;28;20043;-40
2022/07/09 06:57:36;;;;;;;2.60;1.45;;;19.20;94.00;;;19.25;59.28;98274.97;4947052;28;20561;-40
2022/07/09 07:00:07;;;;;;;4.43;1.65;;;19.30;94.00;;;19.37;58.18;98270.72;4945686;28;20109;-40
2022/07/09 07:02:33;;;;;;;3.72;1.83;;;19.40;93.80;;;19.46;56.53;98272.84;4931023;28;20039;-40
2022/07/09 07:04:59;;;;;;;6.47;2.00;;;19.50;92.90;;;19.53;55.01;98273.34;4950684;28;20527;-40
2022/07/09 07:07:24;;;;;;;5.38;1.95;;;19.60;92.20;;;19.61;54.72;98268.41;4946263;28;20125;-40
2022/07/09 07:09:50;;;;;;;4.45;1.67;;;19.80;92.40;;;19.85;54.71;98267.91;4945492;28;20031;-40
2022/07/09 07:12:16;;;;;;;2.53;1.75;;;19.90;92.10;;;20.05;54.26;98273.88;4950449;28;20031;-40
2022/07/09 07:14:42;;;;;;;3.00;2.00;;;20.10;91.90;;;20.30;52.39;98274.06;4951911;28;20046;-40
2022/07/09 07:17:08;;;;;;;5.30;1.90;;;20.30;91.50;;;20.54;50.98;98277.00;4954719;28;20039;-40
2022/07/09 07:19:34;;;;;;;6.57;1.70;;;20.60;90.60;;;20.79;50.06;98275.47;4945157;28;20496;-40
2022/07/09 07:22:00;;;;;;;4.22;1.67;;;20.80;90.20;;;20.97;50.29;98278.75;4949236;28;20042;-40
2022/07/09 07:24:26;;;;;;;4.55;1.90;;;21.00;90.00;;;21.00;49.98;98277.69;4951979;28;20038;-40
2022/07/09 07:26:51;;;;;;;10.13;2.17;;;21.10;89.80;;;20.98;48.70;98275.13;4955705;28;20030;-40
2022/07/09 07:29:17;;;;;;;4.93;1.60;;;21.10;88.20;;;21.06;49.42;98270.09;4961110;28;20061;-40
2022/07/09 07:31:43;;;;;;;5.53;1.80;;;21.10;88.20;;;21.08;47.87;98273.53;4941146;28;20134;-40
2022/07/09 07:34:09;;;;;;;5.43;1.90;;;21.10;86.20;;;21.13;47.87;98263.38;4958185;28;20077;-40
2022/07/09 07:36:34;;;;;;;11.57;1.67;;;21.20;86.30;;;21.20;47.99;98268.34;4953909;28;20030;-40
2022/07/09 07:39:00;;;;;;;7.15;2.08;;;21.20;86.60;;;21.11;51.25;98273.34;4952601;28;20359;-40
2022/07/09 07:41:26;;;;;;;7.30;1.65;;;21.20;89.60;;;21.13;50.29;98273.25;4951950;28;20487;-40
2022/07/09 07:43:51;;;;;;;2.45;1.55;;;21.20;89.80;;;21.14;49.69;98270.47;4959912;28;20368;-40
2022/07/09 07:46:17;;;;;;;2.85;1.63;;;21.20;88.60;;;21.10;47.96;98271.66;4957204;28;20384;-40
2022/07/09 07:48:43;;;;;;;4.68;1.73;;;21.20;86.70;;;21.10;47.12;98276.13;4956522;28;20035;-40
2022/07/09 07:51:09;;;;;;;5.07;1.63;;;21.20;86.10;;;20.87;47.11;98270.47;4947858;28;20049;-40
2022/07/09 07:53:36;;;;;;;4.57;1.60;;;21.10;82.90;;;20.83;46.74;98276.13;4957726;28;20116;-40
2022/07/09 07:56:03;;;;;;;4.18;1.40;;;20.90;83.40;;;20.66;47.10;98279.91;4949228;28;20115;-40
2022/07/09 07:58:29;;;;;;;1.88;1.48;;;20.80;82.90;;;20.75;49.30;98271.25;4959014;28;20315;-40
2022/07/09 08:00:55;;;;;;;5.07;1.85;;;20.80;85.90;;;20.85;49.04;98272.38;4951018;28;20349;-40
2022/07/09 08:03:21;;;;;;;3.22;1.30;;;20.90;87.20;;;20.95;48.47;98259.22;4947056;28;20034;-40
2022/07/09 08:05:47;;;;;;;2.88;1.52;;;21.00;86.30;;;21.14;48.79;98273.16;4951523;28;20034;-40
2022/07/09 08:08:13;;;;;;;16.30;1.90;;;21.20;85.90;;;21.30;48.92;98269.44;4959829;28;20041;-40
2022/07/09 08:10:39;;;;;;;6.90;1.80;;;21.30;86.40;;;21.52;48.11;98271.59;4954197;28;20058;-40
2022/07/09 08:13:05;;;;;;;3.55;1.75;;;21.50;86.30;;;21.59;47.51;98264.84;4948736;28;20070;-40
2022/07/09 08:15:31;;;;;;;4.40;1.45;;;21.60;84.00;;;21.66;47.56;98270.63;4953629;28;20033;-40
2022/07/09 08:17:56;;;;;;;2.40;1.30;;;21.70;84.40;;;21.64;48.19;98267.19;4952833;28;20130;-40
2022/07/09 08:20:22;;;;;;;4.03;1.20;;;21.70;84.20;;;21.48;46.53;98259.31;4953167;28;20065;-40
2022/07/09 08:22:48;;;;;;;3.95;1.58;;;21.60;82.70;;;21.52;48.13;98264.38;4952423;28;20129;-40
2022/07/09 08:25:14;;;;;;;4.07;1.80;;;21.50;84.30;;;21.59;49.49;98263.94;4950838;28;20027;-40
2022/07/09 08:27:40;;;;;;;4.93;1.80;;;21.60;86.40;;;21.50;48.70;98260.94;4954342;28;20027;-40
2022/07/09 08:30:07;;;;;;;2.33;1.40;;;21.60;84.60;;;21.59;48.52;98250.53;4950190;28;20050;-40
2022/07/09 08:32:32;;;;;;;2.40;1.50;;;21.60;86.00;;;21.69;48.82;98252.47;4949656;28;20490;-40
2022/07/09 08:34:58;;;;;;;3.58;1.52;;;21.70;86.20;;;21.82;48.43;98257.88;4949633;28;20085;-40
2022/07/09 08:37:24;;;;;;;4.32;1.40;;;21.90;85.60;;;21.78;48.79;98248.31;4935860;28;20047;-40
2022/07/09 08:39:49;;;;;;;4.43;1.55;;;21.90;85.00;;;21.86;47.61;98259.38;4950637;28;20050;-40
2022/07/09 08:42:16;;;;;;;3.15;1.08;;;22.00;85.40;;;21.97;47.56;98247.03;4954027;28;20483;-40
2022/07/09 08:44:46;;;;;;;3.38;1.50;;;22.00;84.30;;;21.88;49.20;98227.06;4961205;28;20027;-40
2022/07/09 08:47:14;;;;;;;4.95;1.55;;;22.00;85.60;;;22.04;49.22;98241.13;4951781;28;20026;-40
2022/07/09 08:49:42;;;;;;;3.30;1.60;;;22.10;85.30;;;22.18;48.16;98244.66;4957727;28;20023;-40
2022/07/09 08:52:08;;;;;;;2.80;1.55;;;22.20;85.00;;;22.29;48.84;98236.75;4955856;28;20483;-40
2022/07/09 08:54:39;;;;;;;1.88;1.10;;;22.40;84.90;;;22.40;48.60;98238.66;4951270;28;20073;-40
2022/07/09 08:57:05;;;;;;;2.40;1.17;;;22.40;85.20;;;22.48;46.05;98238.94;4954928;28;20562;-40
2022/07/09 08:59:32;;;;;;;3.30;1.27;;;22.50;83.60;;;22.47;47.11;98235.41;4960837;28;20343;-40
2022/07/09 09:02:03;;;;;;;4.28;1.38;;;22.50;82.80;;;22.61;47.19;98233.53;4950637;28;20150;-40
2022/07/09 09:04:29;;;;;;;3.75;1.60;;;22.60;84.20;;;22.68;48.15;98208.78;4950638;28;20027;-40
2022/07/09 09:06:55;;;;;;;3.75;1.40;;;22.70;83.80;;;22.84;46.55;98213.91;4948475;28;20328;-40
2022/07/09 09:09:21;;;;;;;5.70;1.73;;;22.90;83.00;;;23.00;46.53;98216.28;4963700;28;20042;-40
2022/07/09 09:11:49;;;;;;;4.63;1.55;;;23.10;82.40;;;23.04;45.58;98222.28;4952923;28;20031;-40
2022/07/09 09:14:22;;;;;;;3.03;1.60;;;23.30;80.40;;;23.19;46.84;98210.41;4954937;28;20033;-40
2022/07/09 09:16:48;;;;;;;;;;;23.30;81.70;;;23.34;44.75;98212.91;4953898;28;20034;-40
2022/07/09 09:19:14;;;;;;;3.20;1.50;;;23.50;79.50;;;23.42;45.46;98203.28;4956716;28;20422;-40
2022/07/09 09:21:40;;;;;;;4.07;1.65;;;23.60;80.20;;;23.39;45.30;98206.19;4952873;28;20031;-40
2022/07/09 09:24:06;;;;;;;6.50;1.60;;;23.60;79.50;;;23.34;45.25;98203.00;4959862;28;20093;-40
2022/07/09 09:26:35;;;;;;;2.42;1.45;;;23.60;79.70;;;23.41;45.11;98200.69;4963620;28;20015;-40
2022/07/09 09:29:03;;;;;;;2.63;1.50;;;23.50;79.80;;;23.39;45.35;98198.13;4958463;28;20027;-40
2022/07/09 09:31:36;;;;;;;2.83;1.15;;;23.50;80.40;;;23.25;45.88;98204.53;4954637;28;20042;-41
2022/07/09 09:34:13;;;;;;;2.13;1.30;;;23.30;80.50;;;22.89;45.48;98205.47;4963103;28;20113;-40
2022/07/09 09:36:45;;;;;;;1.52;1.10;;;23.00;79.80;;;22.67;46.05;98201.69;4954464;28;20031;-40
2022/07/09 09:39:27;;;;;;;4.07;1.38;;;22.70;80.70;;;22.46;46.71;98205.94;4950531;28;20403;-40
2022/07/09 09:41:54;;;;;;;3.50;1.60;;;22.50;81.40;;;22.10;46.35;98194.16;4948484;28;20074;-40
2022/07/09 09:44:26;;;;;;;3.38;1.35;;;22.20;80.80;;;22.04;46.62;98192.78;4946978;28;20043;-40
2022/07/09 09:46:56;;;;;;;3.17;1.60;;;22.10;81.30;;;22.05;47.47;98196.31;4946128;28;20059;-40
2022/07/09 09:49:22;;;;;;;2.20;1.50;;;22.10;81.90;;;22.04;45.50;98195.47;4945354;28;20113;-40
2022/07/09 09:51:54;;;;;;;4.90;1.27;;;22.20;80.30;;;22.11;44.41;98202.13;4953134;28;20066;-40
2022/07/09 09:54:21;;;;;;;3.17;1.20;;;22.20;78.70;;;22.11;47.63;98194.06;4951870;28;20109;-40
2022/07/09 09:56:48;;;;;;;5.15;1.20;;;22.20;82.10;;;22.21;48.38;98191.56;4952228;28;20074;-40
2022/07/09 09:59:15;;;;;;;2.65;1.10;;;22.30;83.70;;;22.40;44.35;98185.75;4948626;28;20030;-40
2022/07/09 10:01:42;;;;;;;1.45;0.88;;;22.50;78.00;;;22.62;44.81;98173.44;4950390;28;20500;-41
2022/07/09 10:04:14;;;;;;;2.45;0.90;;;22.70;78.20;;;22.96;42.61;98179.81;4962813;23;20082;-43
2022/07/09 10:06:40;;;;;;;2.70;1.00;;;23.10;75.90;;;23.27;42.58;98179.38;4952668;28;20085;-43
2022/07/09 10:09:09;;;;;;;3.70;1.50;;;23.40;74.70;;;23.51;41.26;98174.78;4939932;28;20418;-42
2022/07/09 10:11:46;;;;;;;3.50;1.15;;;23.70;73.90;;;23.67;40.38;98177.16;4929282;28;20547;-42
2022/07/09 10:14:38;;;;;;;3.13;1.10;;;23.80;72.00;;;23.79;40.94;98173.47;4965475;28;20382;-43